createdAt,value
2023-02-12T00:01:10.381Z,101143.91
2023-02-12T00:03:38.790Z,101149.09
2023-02-12T00:06:07.652Z,101139.44
2023-02-12T00:08:36.036Z,101142.88
2023-02-12T00:11:11.483Z,101143.81
2023-02-12T00:13:40.341Z,101133.38
2023-02-12T00:16:10.053Z,101144.66
2023-02-12T00:18:38.836Z,101135.13
2023-02-12T00:21:09.040Z,101128.19
2023-02-12T00:23:37.535Z,101122.03
2023-02-12T00:26:07.700Z,101102.91
2023-02-12T00:28:37.969Z,101116.81
2023-02-12T00:31:07.566Z,101122.03
2023-02-12T00:33:35.817Z,101124.66
2023-02-12T00:36:04.547Z,101116.88
2023-02-12T00:38:32.881Z,101120.34
2023-02-12T00:41:01.052Z,101106.31
2023-02-12T00:43:29.131Z,101121.16
2023-02-12T00:45:58.987Z,101115.06
2023-02-12T00:48:27.312Z,101119.41
2023-02-12T00:50:55.415Z,101118.53
2023-02-12T00:53:23.626Z,101118.63
2023-02-12T00:55:51.741Z,101104.69
2023-02-12T00:58:19.876Z,101123.78
2023-02-12T01:00:48.355Z,101119.44
2023-02-12T01:03:18.034Z,101129.00
2023-02-12T01:05:46.228Z,101120.25
2023-02-12T01:08:16.127Z,101113.41
2023-02-12T01:10:45.264Z,101119.59
2023-02-12T01:13:14.173Z,101123.06
2023-02-12T01:15:43.404Z,101115.22
2023-02-12T01:18:11.577Z,101121.34
2023-02-12T01:20:41.409Z,101122.22
2023-02-12T01:23:09.743Z,101091.75
2023-02-12T01:25:39.952Z,101097.06
2023-02-12T01:28:08.141Z,101112.75
2023-02-12T01:30:36.257Z,101096.22
2023-02-12T01:33:04.484Z,101100.53
2023-02-12T01:35:32.610Z,101083.19
2023-02-12T01:38:02.096Z,101079.75
2023-02-12T01:40:30.186Z,101090.19
2023-02-12T01:43:02.600Z,101075.41
2023-02-12T01:45:54.955Z,101079.75
2023-02-12T01:48:27.882Z,101078.00
2023-02-12T01:50:57.209Z,101088.34
2023-02-12T01:53:33.741Z,101082.34
2023-02-12T01:56:04.602Z,101086.69
2023-02-12T01:58:37.381Z,101094.47
2023-02-12T02:01:06.293Z,101090.13
2023-02-12T02:03:37.428Z,101094.41
2023-02-12T02:06:11.040Z,101105.75
2023-02-12T02:08:41.341Z,101106.53
2023-02-12T02:11:23.609Z,101106.53
2023-02-12T02:14:09.996Z,101099.44
2023-02-12T02:16:40.393Z,101092.41
2023-02-12T02:19:21.661Z,101098.41
2023-02-12T02:22:16.189Z,101094.06
2023-02-12T02:25:17.654Z,101102.88
2023-02-12T02:28:00.715Z,101110.75
2023-02-12T02:30:35.926Z,101115.13
2023-02-12T02:33:25.485Z,101116.00
2023-02-12T02:36:03.405Z,101119.44
2023-02-12T02:38:38.492Z,101109.78
2023-02-12T02:41:13.274Z,101135.91
2023-02-12T02:43:48.583Z,101124.63
2023-02-12T02:46:26.593Z,101127.19
2023-02-12T02:48:58.144Z,101126.28
2023-02-12T02:51:30.822Z,101133.25
2023-02-12T02:54:04.918Z,101118.41
2023-02-12T02:56:36.584Z,101118.41
2023-02-12T02:59:09.580Z,101129.78
2023-02-12T03:01:43.414Z,101130.69
2023-02-12T03:04:16.558Z,101135.88
2023-02-12T03:06:48.757Z,101139.41
2023-02-12T03:09:21.125Z,101154.22
2023-02-12T03:11:50.987Z,101158.56
2023-02-12T03:14:23.530Z,101155.06
2023-02-12T03:16:59.631Z,101146.38
2023-02-12T03:19:32.890Z,101181.16
2023-02-12T03:22:05.459Z,101167.16
2023-02-12T03:24:37.971Z,101162.72
2023-02-12T03:27:10.582Z,101161.88
2023-02-12T03:29:39.107Z,101157.50
2023-02-12T03:32:18.300Z,101163.50
2023-02-12T03:34:51.931Z,101164.41
2023-02-12T03:37:28.240Z,101180.13
2023-02-12T03:39:59.987Z,101170.56
2023-02-12T03:42:36.664Z,101186.22
2023-02-12T03:45:11.950Z,101170.53
2023-02-12T03:47:47.631Z,101179.25
2023-02-12T03:50:19.134Z,101194.03
2023-02-12T03:52:48.419Z,101176.63
2023-02-12T03:55:17.606Z,101183.59
2023-02-12T03:57:50.699Z,101190.59
2023-02-12T04:00:21.800Z,101190.66
2023-02-12T04:02:51.493Z,101190.69
2023-02-12T04:05:22.099Z,101195.84
2023-02-12T04:07:51.458Z,101195.75
2023-02-12T04:10:23.699Z,101210.50
2023-02-12T04:12:58.371Z,101217.59
2023-02-12T04:15:46.759Z,101228.78
2023-02-12T04:18:22.677Z,101234.88
2023-02-12T04:20:58.476Z,101237.50
2023-02-12T04:23:52.018Z,101247.97
2023-02-12T04:26:28.382Z,101256.69
2023-02-12T04:29:06.985Z,101269.78
2023-02-12T04:31:42.931Z,101273.31
2023-02-12T04:34:18.841Z,101276.88
2023-02-12T04:36:53.079Z,101270.84
2023-02-12T04:39:25.528Z,101263.94
2023-02-12T04:41:53.838Z,101279.69
2023-02-12T04:44:27.353Z,101281.34
2023-02-12T04:46:55.694Z,101281.41
2023-02-12T04:49:25.770Z,101287.56
2023-02-12T04:51:53.992Z,101295.47
2023-02-12T04:54:23.734Z,101307.66
2023-02-12T04:56:52.403Z,101315.59
2023-02-12T04:59:20.631Z,101318.31
2023-02-12T05:01:48.923Z,101320.97
2023-02-12T05:04:18.600Z,101321.03
2023-02-12T05:06:48.344Z,101326.25
2023-02-12T05:09:18.413Z,101317.59
2023-02-12T05:11:47.087Z,101323.69
2023-02-12T05:14:15.460Z,101341.91
2023-02-12T05:16:43.592Z,101340.19
2023-02-12T05:19:12.357Z,101346.22
2023-02-12T05:21:40.760Z,101343.63
2023-02-12T05:24:10.399Z,101356.63
2023-02-12T05:26:38.562Z,101359.22
2023-02-12T05:29:06.696Z,101367.88
2023-02-12T05:31:35.021Z,101377.44
2023-02-12T05:34:03.429Z,101375.69
2023-02-12T05:36:31.570Z,101366.13
2023-02-12T05:39:01.002Z,101370.44
2023-02-12T05:41:34.971Z,101374.78
2023-02-12T05:44:03.641Z,101379.09
2023-02-12T05:46:31.987Z,101380.81
2023-02-12T05:49:00.494Z,101388.63
2023-02-12T05:51:28.924Z,101393.00
2023-02-12T05:54:00.429Z,101400.75
2023-02-12T05:56:31.861Z,101401.63
2023-02-12T05:59:03.649Z,101398.97
2023-02-12T06:01:34.593Z,101413.69
2023-02-12T06:04:04.083Z,101405.00
2023-02-12T06:06:33.815Z,101422.34
2023-02-12T06:09:02.584Z,101431.84
2023-02-12T06:11:32.095Z,101424.94
2023-02-12T06:14:02.933Z,101432.75
2023-02-12T06:16:31.100Z,101429.31
2023-02-12T06:18:59.496Z,101438.03
2023-02-12T06:21:28.944Z,101431.16
2023-02-12T06:23:57.406Z,101443.31
2023-02-12T06:26:26.336Z,101445.03
2023-02-12T06:28:55.882Z,101438.13
2023-02-12T06:31:26.082Z,101443.31
2023-02-12T06:33:56.108Z,101448.56
2023-02-12T06:36:25.002Z,101452.06
2023-02-12T06:38:53.288Z,101447.72
2023-02-12T06:41:21.601Z,101435.59
2023-02-12T06:43:50.551Z,101453.81
2023-02-12T06:46:21.387Z,101454.72
2023-02-12T06:48:49.617Z,101464.28
2023-02-12T06:51:21.913Z,101476.44
2023-02-12T06:53:50.688Z,101479.91
2023-02-12T06:56:19.522Z,101482.50
2023-02-12T06:58:55.105Z,101482.50
2023-02-12T07:01:25.989Z,101489.44
2023-02-12T07:03:55.778Z,101490.28
2023-02-12T07:06:25.217Z,101500.66
2023-02-12T07:08:53.409Z,101505.88
2023-02-12T07:11:25.343Z,101502.31
2023-02-12T07:13:53.464Z,101511.84
2023-02-12T07:16:22.027Z,101516.97
2023-02-12T07:18:51.673Z,101519.53
2023-02-12T07:21:20.277Z,101514.25
2023-02-12T07:23:51.294Z,101527.25
2023-02-12T07:26:21.031Z,101532.50
2023-02-12T07:28:49.474Z,101530.75
2023-02-12T07:31:19.864Z,101542.94
2023-02-12T07:33:49.191Z,101544.66
2023-02-12T07:36:21.200Z,101541.09
2023-02-12T07:38:49.659Z,101548.03
2023-02-12T07:41:20.851Z,101554.91
2023-02-12T07:43:51.094Z,101547.00
2023-02-12T07:46:21.439Z,101556.53
2023-02-12T07:48:49.964Z,101560.78
2023-02-12T07:51:20.267Z,101564.22
2023-02-12T07:53:48.643Z,101567.56
2023-02-12T07:56:19.816Z,101568.34
2023-02-12T07:58:49.630Z,101565.63
2023-02-12T08:01:20.048Z,101560.31
2023-02-12T08:03:49.667Z,101564.50
2023-02-12T08:06:21.328Z,101567.84
2023-02-12T08:08:49.515Z,101567.78
2023-02-12T08:11:18.168Z,101572.81
2023-02-12T08:13:47.032Z,101575.31
2023-02-12T08:16:16.702Z,101581.28
2023-02-12T08:18:45.501Z,101578.47
2023-02-12T08:21:15.352Z,101581.84
2023-02-12T08:23:45.372Z,101580.81
2023-02-12T08:26:15.599Z,101579.97
2023-02-12T08:28:46.431Z,101586.81
2023-02-12T08:31:16.643Z,101598.81
2023-02-12T08:33:46.361Z,101588.22
2023-02-12T08:36:16.550Z,101588.16
2023-02-12T08:38:47.269Z,101599.28
2023-02-12T08:41:19.282Z,101596.56
2023-02-12T08:43:49.404Z,101593.03
2023-02-12T08:46:20.021Z,101593.00
2023-02-12T08:48:48.898Z,101596.44
2023-02-12T08:51:18.612Z,101594.66
2023-02-12T08:53:49.989Z,101603.31
2023-02-12T08:56:19.034Z,101602.38
2023-02-12T08:58:47.705Z,101607.44
2023-02-12T09:01:18.300Z,101616.97
2023-02-12T09:03:47.624Z,101621.91
2023-02-12T09:06:16.621Z,101622.81
2023-02-12T09:08:45.271Z,101621.97
2023-02-12T09:11:17.086Z,101631.56
2023-02-12T09:13:46.453Z,101635.03
2023-02-12T09:16:15.448Z,101630.59
2023-02-12T09:18:43.671Z,101633.25
2023-02-12T09:21:14.858Z,101639.19
2023-02-12T09:23:42.976Z,101646.41
2023-02-12T09:26:13.411Z,101650.59
2023-02-12T09:28:43.854Z,101652.19
2023-02-12T09:31:13.979Z,101652.91
2023-02-12T09:33:43.566Z,101653.94
2023-02-12T09:36:14.116Z,101655.47
2023-02-12T09:38:42.699Z,101652.66
2023-02-12T09:41:36.240Z,101649.94
2023-02-12T09:44:14.945Z,101649.72
2023-02-12T09:46:48.882Z,101656.38
2023-02-12T09:49:25.199Z,101657.84
2023-02-12T09:51:54.969Z,101661.38
2023-02-12T09:54:27.410Z,101660.31
2023-02-12T09:56:59.498Z,101662.72
2023-02-12T09:59:34.746Z,101664.66
2023-02-12T10:02:03.179Z,101661.00
2023-02-12T10:04:31.483Z,101667.72
2023-02-12T10:07:11.223Z,101668.47
2023-02-12T10:09:58.628Z,101670.19
2023-02-12T10:12:37.945Z,101666.53
2023-02-12T10:15:18.259Z,101666.59
2023-02-12T10:17:56.718Z,101666.78
2023-02-12T10:20:46.719Z,101669.91
2023-02-12T10:23:29.917Z,101673.19
2023-02-12T10:26:01.216Z,101671.94
2023-02-12T10:28:35.566Z,101673.53
2023-02-12T10:31:09.402Z,101671.63
2023-02-12T10:33:42.870Z,101676.59
2023-02-12T10:36:20.615Z,101678.81
2023-02-12T10:38:52.632Z,101672.13
2023-02-12T10:41:21.239Z,101677.00
2023-02-12T10:43:50.565Z,101685.72
2023-02-12T10:46:20.424Z,101686.03
2023-02-12T10:48:54.189Z,101669.69
2023-02-12T10:51:58.060Z,101679.19
2023-02-12T10:54:42.014Z,101683.53
2023-02-12T10:57:18.282Z,101668.59
2023-02-12T10:59:49.765Z,101671.09
2023-02-12T11:02:28.678Z,101670.34
2023-02-12T11:05:00.395Z,101676.22
2023-02-12T11:07:29.912Z,101674.03
2023-02-12T11:09:58.913Z,101678.38
2023-02-12T11:12:37.266Z,101677.09
2023-02-12T11:15:14.641Z,101680.28
2023-02-12T11:17:46.460Z,101677.50
2023-02-12T11:20:29.381Z,101687.19
2023-02-12T11:23:00.189Z,101679.28
2023-02-12T11:25:30.507Z,101679.44
2023-02-12T11:28:05.263Z,101677.94
2023-02-12T11:30:35.095Z,101683.88
2023-02-12T11:33:23.026Z,101684.25
2023-02-12T11:35:56.762Z,101688.50
2023-02-12T11:38:33.130Z,101687.66
2023-02-12T11:41:08.289Z,101690.16
2023-02-12T11:43:39.747Z,101685.66
2023-02-12T11:46:10.049Z,101686.66
2023-02-12T11:48:44.104Z,101683.47
2023-02-12T11:51:21.654Z,101688.56
2023-02-12T11:53:53.180Z,101689.53
2023-02-12T11:56:23.845Z,101686.16
2023-02-12T11:58:54.099Z,101693.13
2023-02-12T12:01:28.725Z,101693.09
2023-02-12T12:04:05.135Z,101685.19
2023-02-12T12:06:38.368Z,101674.94
2023-02-12T12:09:15.922Z,101685.00
2023-02-12T12:11:55.241Z,101675.19
2023-02-12T12:14:28.838Z,101679.47
2023-02-12T12:17:21.673Z,101675.41
2023-02-12T12:19:58.375Z,101675.69
2023-02-12T12:22:42.439Z,101667.47
2023-02-12T12:25:18.786Z,101668.28
2023-02-12T12:28:06.630Z,101663.78
2023-02-12T12:30:46.349Z,101662.22
2023-02-12T12:33:21.854Z,101665.56
2023-02-12T12:36:03.101Z,101663.81
2023-02-12T12:38:45.813Z,101667.25
2023-02-12T12:41:25.806Z,101664.72
2023-02-12T12:44:05.287Z,101670.31
2023-02-12T12:46:50.294Z,101660.72
2023-02-12T12:49:44.315Z,101658.91
2023-02-12T12:52:44.036Z,101669.31
2023-02-12T12:55:51.719Z,101669.84
2023-02-12T12:58:34.663Z,101662.50
2023-02-12T13:01:12.345Z,101670.22
2023-02-12T13:04:15.477Z,101661.25
2023-02-12T13:06:55.415Z,101660.28
2023-02-12T13:09:47.790Z,101669.81
2023-02-12T13:12:35.463Z,101658.50
2023-02-12T13:15:10.972Z,101658.38
2023-02-12T13:17:48.130Z,101668.00
2023-02-12T13:20:23.460Z,101663.03
2023-02-12T13:22:59.287Z,101670.22
2023-02-12T13:25:39.195Z,101666.25
2023-02-12T13:28:17.474Z,101670.75
2023-02-12T13:30:51.227Z,101673.38
2023-02-12T13:33:24.735Z,101669.00
2023-02-12T13:35:57.369Z,101669.72
2023-02-12T13:38:31.232Z,101661.91
2023-02-12T13:41:05.834Z,101670.72
2023-02-12T13:43:47.302Z,101671.63
2023-02-12T13:46:26.961Z,101676.22
2023-02-12T13:49:04.048Z,101676.09
2023-02-12T13:51:43.874Z,101684.94
2023-02-12T13:54:28.119Z,101683.16
2023-02-12T13:57:01.506Z,101681.81
2023-02-12T13:59:48.399Z,101689.91
2023-02-12T14:02:49.917Z,101694.53
2023-02-12T14:05:25.965Z,101700.19
2023-02-12T14:07:56.950Z,101693.69
2023-02-12T14:10:29.540Z,101690.31
2023-02-12T14:13:12.000Z,101696.53
2023-02-12T14:15:47.425Z,101691.41
2023-02-12T14:18:31.901Z,101702.09
2023-02-12T14:21:36.349Z,101691.63
2023-02-12T14:24:51.406Z,101697.69
2023-02-12T14:27:29.997Z,101701.13
2023-02-12T14:30:27.013Z,101701.06
2023-02-12T14:33:22.457Z,101701.03
2023-02-12T14:36:06.893Z,101715.06
2023-02-12T14:39:05.201Z,101712.53
2023-02-12T14:41:38.862Z,101713.56
2023-02-12T14:44:42.955Z,101716.19
2023-02-12T14:47:33.785Z,101713.72
2023-02-12T14:50:08.221Z,101713.72
2023-02-12T14:52:42.568Z,101717.31
2023-02-12T14:55:23.942Z,101721.97
2023-02-12T14:57:57.236Z,101722.03
2023-02-12T15:00:31.408Z,101718.69
2023-02-12T15:03:14.345Z,101716.09
2023-02-12T15:05:49.169Z,101718.91
2023-02-12T15:08:34.466Z,101719.88
2023-02-12T15:11:15.885Z,101721.69
2023-02-12T15:13:57.858Z,101721.75
2023-02-12T15:16:37.321Z,101721.84
2023-02-12T15:19:20.720Z,101722.84
2023-02-12T15:21:50.054Z,101726.50
2023-02-12T15:24:25.412Z,101724.91
2023-02-12T15:26:56.680Z,101729.38
2023-02-12T15:29:31.992Z,101727.03
2023-02-12T15:32:04.675Z,101726.34
2023-02-12T15:34:41.250Z,101736.16
2023-02-12T15:37:20.314Z,101729.44
2023-02-12T15:39:50.410Z,101730.50
2023-02-12T15:42:31.782Z,101727.28
2023-02-12T15:45:22.569Z,101732.78
2023-02-12T15:48:03.528Z,101738.22
2023-02-12T15:50:37.846Z,101741.03
2023-02-12T15:53:08.536Z,101744.59
2023-02-12T15:55:42.409Z,101747.34
2023-02-12T15:58:23.149Z,101747.44
2023-02-12T16:00:55.236Z,101759.72
2023-02-12T16:03:27.621Z,101756.31
2023-02-12T16:06:02.546Z,101764.22
2023-02-12T16:08:33.198Z,101766.06
2023-02-12T16:11:14.517Z,101765.25
2023-02-12T16:13:48.436Z,101770.53
2023-02-12T16:16:24.536Z,101783.63
2023-02-12T16:19:21.009Z,101795.06
2023-02-12T16:21:57.800Z,101798.59
2023-02-12T16:24:35.806Z,101791.69
2023-02-12T16:27:11.148Z,101794.34
2023-02-12T16:29:47.069Z,101795.28
2023-02-12T16:32:35.588Z,101795.31
2023-02-12T16:35:08.921Z,101795.34
2023-02-12T16:37:49.539Z,101792.75
2023-02-12T16:40:39.813Z,101798.84
2023-02-12T16:43:26.357Z,101807.56
2023-02-12T16:46:06.317Z,101811.06
2023-02-12T16:48:46.342Z,101813.66
2023-02-12T16:51:27.153Z,101815.44
2023-02-12T16:54:00.746Z,101829.34
2023-02-12T16:56:37.508Z,101836.28
2023-02-12T16:59:07.142Z,101833.66
2023-02-12T17:01:41.267Z,101839.72
2023-02-12T17:04:19.033Z,101837.09
2023-02-12T17:06:47.631Z,101844.09
2023-02-12T17:09:18.663Z,101843.19
2023-02-12T17:11:49.828Z,101839.69
2023-02-12T17:14:24.328Z,101850.94
2023-02-12T17:16:54.564Z,101840.47
2023-02-12T17:19:24.692Z,101842.19
2023-02-12T17:21:55.223Z,101843.94
2023-02-12T17:24:34.915Z,101850.91
2023-02-12T17:27:05.199Z,101845.69
2023-02-12T17:29:35.039Z,101838.78
2023-02-12T17:32:04.702Z,101843.97
2023-02-12T17:34:47.777Z,101837.03
2023-02-12T17:37:19.142Z,101840.50
2023-02-12T17:39:52.374Z,101849.16
2023-02-12T17:42:21.929Z,101845.59
2023-02-12T17:44:51.907Z,101842.09
2023-02-12T17:47:32.687Z,101845.56
2023-02-12T17:50:03.386Z,101859.47
2023-02-12T17:52:32.947Z,101859.47
2023-02-12T17:55:04.150Z,101862.91
2023-02-12T17:57:33.605Z,101869.75
2023-02-12T18:00:08.882Z,101867.97
2023-02-12T18:02:40.019Z,101866.22
2023-02-12T18:05:12.180Z,101871.38
2023-02-12T18:07:42.654Z,101878.22
2023-02-12T18:10:16.287Z,101879.91
2023-02-12T18:12:46.380Z,101878.09
2023-02-12T18:15:16.638Z,101872.84
2023-02-12T18:17:46.723Z,101871.16
2023-02-12T18:20:17.077Z,101883.22
2023-02-12T18:22:47.994Z,101877.09
2023-02-12T18:25:20.027Z,101884.94
2023-02-12T18:27:49.193Z,101880.53
2023-02-12T18:30:19.439Z,101888.28
2023-02-12T18:32:50.928Z,101886.44
2023-02-12T18:35:21.757Z,101881.09
2023-02-12T18:37:51.958Z,101877.53
2023-02-12T18:40:23.795Z,101884.34
2023-02-12T18:42:54.055Z,101886.03
2023-02-12T18:45:23.493Z,101890.28
2023-02-12T18:47:54.848Z,101892.88
2023-02-12T18:50:25.223Z,101889.47
2023-02-12T18:52:58.289Z,101893.84
2023-02-12T18:55:30.134Z,101892.81
2023-02-12T18:58:00.707Z,101900.53
2023-02-12T19:00:33.615Z,101890.84
2023-02-12T19:03:03.840Z,101890.69
2023-02-12T19:05:33.870Z,101875.81
2023-02-12T19:08:04.208Z,101888.84
2023-02-12T19:10:39.506Z,101897.47
2023-02-12T19:13:18.863Z,101893.94
2023-02-12T19:15:49.220Z,101886.91
2023-02-12T19:18:20.456Z,101893.69
2023-02-12T19:20:51.472Z,101887.66
2023-02-12T19:23:23.272Z,101893.66
2023-02-12T19:25:57.643Z,101891.06
2023-02-12T19:28:27.605Z,101894.69
2023-02-12T19:31:03.577Z,101884.91
2023-02-12T19:33:33.227Z,101909.97
2023-02-12T19:36:02.917Z,101914.06
2023-02-12T19:38:34.958Z,101913.72
2023-02-12T19:41:07.983Z,101915.94
2023-02-12T19:43:38.005Z,101913.16
2023-02-12T19:46:11.763Z,101919.25
2023-02-12T19:48:42.329Z,101923.53
2023-02-12T19:51:15.985Z,101926.06
2023-02-12T19:53:47.599Z,101920.13
2023-02-12T19:56:19.675Z,101932.34
2023-02-12T19:58:49.345Z,101931.44
2023-02-12T20:01:22.394Z,101939.38
2023-02-12T20:03:56.826Z,101937.63
2023-02-12T20:06:30.673Z,101936.78
2023-02-12T20:09:03.089Z,101942.25
2023-02-12T20:11:38.323Z,101938.97
2023-02-12T20:14:11.472Z,101943.41
2023-02-12T20:16:42.776Z,101949.53
2023-02-12T20:19:14.777Z,101940.81
2023-02-12T20:21:45.901Z,101945.97
2023-02-12T20:24:16.188Z,101946.81
2023-02-12T20:26:48.609Z,101946.94
2023-02-12T20:29:19.441Z,101955.66
2023-02-12T20:31:48.822Z,101957.19
2023-02-12T20:34:22.794Z,101965.63
2023-02-12T20:36:53.248Z,101962.16
2023-02-12T20:39:24.413Z,101961.50
2023-02-12T20:41:57.613Z,101968.72
2023-02-12T20:44:31.797Z,101968.06
2023-02-12T20:47:02.690Z,101976.75
2023-02-12T20:49:33.851Z,101974.25
2023-02-12T20:52:03.073Z,101989.03
2023-02-12T20:54:33.770Z,101994.44
2023-02-12T20:57:07.381Z,101989.31
2023-02-12T20:59:36.802Z,101989.38
2023-02-12T21:02:06.219Z,102001.53
2023-02-12T21:04:36.218Z,102004.13
2023-02-12T21:07:06.503Z,102000.66
2023-02-12T21:09:36.536Z,101993.78
2023-02-12T21:12:07.844Z,101993.78
2023-02-12T21:14:38.677Z,102000.72
2023-02-12T21:17:08.340Z,102004.09
2023-02-12T21:19:39.847Z,102002.41
2023-02-12T21:22:09.774Z,102002.38
2023-02-12T21:24:40.377Z,102003.22
2023-02-12T21:27:12.321Z,102003.13
2023-02-12T21:29:43.596Z,102003.06
2023-02-12T21:32:14.304Z,101993.50
2023-02-12T21:34:44.617Z,101990.69
2023-02-12T21:37:13.545Z,101994.28
2023-02-12T21:39:42.783Z,101996.03
2023-02-12T21:42:13.247Z,102000.44
2023-02-12T21:44:42.109Z,101999.72
2023-02-12T21:47:11.468Z,102002.13
2023-02-12T21:49:40.443Z,102002.88
2023-02-12T21:52:08.577Z,102004.47
2023-02-12T21:54:36.895Z,102010.50
2023-02-12T21:57:05.890Z,102012.16
2023-02-12T21:59:36.570Z,102017.41
2023-02-12T22:02:05.827Z,102024.25
2023-02-12T22:04:34.006Z,102029.41
2023-02-12T22:07:03.521Z,102034.59
2023-02-12T22:09:31.927Z,102033.69
2023-02-12T22:12:00.160Z,102042.31
2023-02-12T22:14:28.302Z,102040.50
2023-02-12T22:16:57.873Z,102049.19
2023-02-12T22:19:26.045Z,102050.00
2023-02-12T22:21:54.144Z,102058.63
2023-02-12T22:24:22.451Z,102058.66
2023-02-12T22:26:50.637Z,102056.03
2023-02-12T22:29:19.292Z,102052.53
2023-02-12T22:31:48.361Z,102049.84
2023-02-12T22:34:19.964Z,102052.44
2023-02-12T22:36:48.845Z,102062.75
2023-02-12T22:39:17.725Z,102058.34
2023-02-12T22:41:46.221Z,102060.81
2023-02-12T22:44:15.580Z,102063.38
2023-02-12T22:46:44.849Z,102066.72
2023-02-12T22:49:13.271Z,102058.88
2023-02-12T22:51:43.127Z,102072.53
2023-02-12T22:54:14.018Z,102063.81
2023-02-12T22:56:42.396Z,102057.41
2023-02-12T22:59:11.956Z,102064.19
2023-02-12T23:01:40.214Z,102054.72
2023-02-12T23:04:08.883Z,102054.59
2023-02-12T23:06:37.035Z,102064.03
2023-02-12T23:09:06.637Z,102065.78
2023-02-12T23:11:35.364Z,102066.53
2023-02-12T23:14:03.456Z,102065.69
2023-02-12T23:16:31.671Z,102071.69
2023-02-12T23:19:01.392Z,102075.00
2023-02-12T23:21:30.852Z,102070.47
2023-02-12T23:24:00.299Z,102066.91
2023-02-12T23:26:30.861Z,102065.78
2023-02-12T23:28:59.479Z,102072.47
2023-02-12T23:31:27.719Z,102064.69
2023-02-12T23:33:55.865Z,102073.25
2023-02-12T23:36:24.036Z,102076.28
2023-02-12T23:38:52.135Z,102072.44
2023-02-12T23:41:20.370Z,102069.97
2023-02-12T23:43:49.909Z,102064.03
2023-02-12T23:46:18.107Z,102070.13
2023-02-12T23:48:46.268Z,102072.69
2023-02-12T23:51:14.396Z,102066.63
2023-02-12T23:53:42.584Z,102069.03
2023-02-12T23:56:10.728Z,102062.09
2023-02-12T23:58:38.876Z,102061.97
